Skardu Weather



Skardu's Current Weather

Temprature 12.73o overcast clouds

overcast clouds

Rain: 0 %

Min Temprature12.73o
Max Temprature12.73o
Humidity89
Wind Speed0.95 m/h
Sun Rise05:48:04
Sun Set17:49:46
Current Time: 26-Sep-2022 07:35:26
Lat/Lon: 35.2885, 75.6333




Skardu's Geo Location



Skardu's Weather Forecast

Time Overall Temp Min Temp Max Temp Humidity Wind Speed Rain
26-Sep-2022 (Mon)
08:00:00 light rain 12.730 12.730 12.730 89 0.95 m/h 23 %
11:00:00 overcast clouds 13.720 13.720 15.710 81 0.56 m/h 0 %
14:00:00 scattered clouds 17.060 17.060 19.230 59 1.47 m/h 0 %
17:00:00 few clouds 20.000 20.000 20.000 40 1.12 m/h 0 %
20:00:00 clear sky 18.720 18.720 18.720 47 0.58 m/h 0 %
23:00:00 clear sky 17.160 17.160 17.160 49 0.92 m/h 0 %
27-Sep-2022 (Tue)
02:00:00 clear sky 15.440 15.440 15.440 50 1.22 m/h 0 %
05:00:00 clear sky 14.010 14.010 14.010 51 0.62 m/h 0 %
08:00:00 clear sky 15.900 15.900 15.900 36 0.89 m/h 0 %
11:00:00 clear sky 19.310 19.310 19.310 29 1.21 m/h 0 %
14:00:00 clear sky 21.820 21.820 21.820 25 2.37 m/h 0 %
17:00:00 few clouds 21.620 21.620 21.620 24 1.14 m/h 0 %
20:00:00 scattered clouds 20.140 20.140 20.140 38 1.08 m/h 0 %
23:00:00 scattered clouds 18.760 18.760 18.760 44 0.88 m/h 0 %
28-Sep-2022 (Wed)
02:00:00 broken clouds 17.540 17.540 17.540 46 0.97 m/h 0 %
05:00:00 broken clouds 15.860 15.860 15.860 53 1.41 m/h 0 %
08:00:00 scattered clouds 17.950 17.950 17.950 38 0.57 m/h 0 %
11:00:00 scattered clouds 21.040 21.040 21.040 29 0.64 m/h 0 %
14:00:00 broken clouds 22.770 22.770 22.770 27 2.95 m/h 0 %
17:00:00 light rain 20.150 20.150 20.150 35 2.48 m/h 10 %
20:00:00 light rain 16.620 16.620 16.620 55 1.86 m/h 23 %
23:00:00 overcast clouds 15.680 15.680 15.680 59 1.78 m/h 0 %
29-Sep-2022 (Thu)
02:00:00 overcast clouds 14.440 14.440 14.440 65 1.66 m/h 0 %
05:00:00 overcast clouds 13.430 13.430 13.430 72 0.99 m/h 0 %
08:00:00 overcast clouds 14.790 14.790 14.790 60 0.51 m/h 0 %
11:00:00 overcast clouds 18.610 18.610 18.610 40 1.51 m/h 0 %
14:00:00 few clouds 21.140 21.140 21.140 29 2.04 m/h 0 %
17:00:00 scattered clouds 20.950 20.950 20.950 31 1.4 m/h 0 %
20:00:00 broken clouds 19.070 19.070 19.070 43 2.58 m/h 0 %
23:00:00 scattered clouds 17.420 17.420 17.420 51 2.34 m/h 0 %
30-Sep-2022 (Fri)
02:00:00 scattered clouds 16.160 16.160 16.160 55 1.74 m/h 0 %
05:00:00 few clouds 15.200 15.200 15.200 57 0.9 m/h 0 %
08:00:00 clear sky 16.930 16.930 16.930 50 0.74 m/h 0 %
11:00:00 clear sky 20.220 20.220 20.220 38 1.51 m/h 0 %
14:00:00 broken clouds 22.140 22.140 22.140 31 2.16 m/h 0 %
17:00:00 light rain 20.920 20.920 20.920 35 0.83 m/h 24 %
20:00:00 light rain 19.270 19.270 19.270 45 2.89 m/h 16 %
23:00:00 few clouds 17.470 17.470 17.470 54 2.77 m/h 0 %
01-Oct-2022 (Sat)
02:00:00 light rain 15.870 15.870 15.870 59 2.18 m/h 15 %
05:00:00 clear sky 14.900 14.900 14.900 59 2.1 m/h 0 %

Famous Cities (61)